Time;durP1;ratioP1;P1;durP2;ratioP2;P2;SDS_P1;SDS_P2;PMS_P1;PMS_P2;Temp;Humidity;BMP_temperature;BMP_pressure;BME280_temperature;BME280_humidity;BME280_pressure;Samples;Min_cycle;Max_cycle;Signal;HPM_P1;HPM_P2
2022/06/14 00:01:28;;;;;;;1.73;1.23;;;;;;;10.83;82.17;101640.84;5033443;28;20138;-81
2022/06/14 00:03:57;;;;;;;1.75;1.30;;;;;;;10.80;81.91;101643.47;5017695;28;20054;-86
2022/06/14 00:06:29;;;;;;;2.13;1.40;;;;;;;10.80;82.04;101645.22;5013320;28;20056;-83
2022/06/14 00:08:55;;;;;;;5.25;1.75;;;;;;;10.81;82.31;101640.00;5018603;28;20332;-82
2022/06/14 00:11:31;;;;;;;3.42;1.27;;;;;;;10.82;82.32;101641.75;5014740;28;20052;-82
2022/06/14 00:14:07;;;;;;;4.80;1.77;;;;;;;10.82;82.33;101633.88;4992612;28;20077;-83
2022/06/14 00:16:35;;;;;;;4.65;1.30;;;;;;;10.80;82.76;101647.84;5012347;28;20045;-83
2022/06/14 00:19:04;;;;;;;3.22;1.77;;;;;;;10.78;82.61;101650.47;5018619;28;20584;-82
2022/06/14 00:21:32;;;;;;;4.13;1.33;;;;;;;10.77;83.17;101648.69;5012572;28;20044;-82
2022/06/14 00:23:59;;;;;;;4.00;1.75;;;;;;;10.73;83.26;101644.31;5010382;28;20502;-83
2022/06/14 00:26:26;;;;;;;2.80;1.50;;;;;;;10.65;83.66;101648.59;4989532;28;20059;-84
2022/06/14 00:28:52;;;;;;;2.85;1.63;;;;;;;10.58;84.42;101651.16;5007255;28;20804;-82
2022/06/14 00:31:23;;;;;;;4.97;1.40;;;;;;;10.52;85.00;101643.28;4996190;28;20056;-84
2022/06/14 00:33:50;;;;;;;1.90;1.02;;;;;;;10.48;85.06;101653.72;5010951;28;20502;-82
2022/06/14 00:36:28;;;;;;;4.65;1.63;;;;;;;10.41;85.52;101643.19;5003689;28;20044;-81
2022/06/14 00:38:58;;;;;;;2.88;1.80;;;;;;;10.37;86.07;101648.41;4992675;28;20059;-81
2022/06/14 00:41:39;;;;;;;6.53;1.25;;;;;;;10.37;86.69;101651.03;5006170;28;20049;-83
2022/06/14 00:44:14;;;;;;;4.05;1.15;;;;;;;10.32;86.11;101650.09;5011106;28;20151;-82
2022/06/14 00:47:02;;;;;;;5.35;1.67;;;;;;;10.27;86.92;101645.69;5012646;28;20668;-81
2022/06/14 00:49:39;;;;;;;4.40;1.33;;;;;;;10.26;87.02;101643.06;5013293;28;20052;-83
2022/06/14 00:52:29;;;;;;;5.38;1.70;;;;;;;10.22;88.08;101636.03;5006958;28;20064;-83
2022/06/14 00:55:14;;;;;;;2.63;1.48;;;;;;;10.19;87.85;101631.66;4999957;28;20132;-84
2022/06/14 00:58:06;;;;;;;4.68;2.25;;;;;;;10.15;87.29;101632.50;4993167;28;20119;-80
2022/06/14 01:00:41;;;;;;;7.28;2.15;;;;;;;10.10;87.32;101626.34;5009250;28;20069;-82
2022/06/14 01:03:20;;;;;;;3.80;1.48;;;;;;;10.06;87.88;101616.72;4997901;28;20111;-80
2022/06/14 01:06:13;;;;;;;2.83;1.38;;;;;;;10.02;88.57;101621.03;4997825;28;20596;-82
2022/06/14 01:08:51;;;;;;;4.78;1.70;;;;;;;10.03;88.35;101632.41;5003993;28;20682;-80
2022/06/14 01:11:29;;;;;;;2.67;1.23;;;;;;;10.00;88.61;101637.59;4986133;28;20627;-83
2022/06/14 01:13:56;;;;;;;3.97;1.30;;;;;;;9.98;89.03;101627.13;5024611;28;20531;-84
2022/06/14 01:16:22;;;;;;;3.75;1.58;;;;;;;9.97;88.90;101633.19;4989298;28;20077;-80
2022/06/14 01:18:49;;;;;;;1.52;1.42;;;;;;;9.92;89.59;101635.78;5005656;28;20075;-82
2022/06/14 01:21:16;;;;;;;9.02;1.98;;;;;;;9.91;89.54;101633.16;5004768;28;20060;-82
2022/06/14 01:23:44;;;;;;;3.72;1.42;;;;;;;9.90;89.60;101639.25;5002366;28;20038;-80
2022/06/14 01:26:19;;;;;;;3.13;1.40;;;;;;;9.87;89.57;101629.63;5002806;28;20057;-80
2022/06/14 01:28:51;;;;;;;4.32;1.20;;;;;;;9.84;89.73;101634.84;4992591;28;20057;-83
2022/06/14 01:31:19;;;;;;;4.13;1.73;;;;;;;9.83;90.04;101633.09;5027371;28;20068;-82
2022/06/14 01:33:57;;;;;;;6.40;2.10;;;;;;;9.82;90.62;101636.56;4986775;28;20049;-83
2022/06/14 01:36:35;;;;;;;4.15;1.50;;;;;;;9.81;90.58;101631.31;4980167;28;20124;-80
2022/06/14 01:39:07;;;;;;;3.15;1.45;;;;;;;9.77;90.81;101622.56;5023440;28;20041;-84
2022/06/14 01:42:03;;;;;;;3.78;1.63;;;;;;;9.75;91.09;101619.03;4991443;28;20072;-81
2022/06/14 01:45:07;;;;;;;4.22;1.80;;;;;;;9.71;91.37;101620.78;5017905;28;20045;-84
2022/06/14 01:47:58;;;;;;;8.60;1.90;;;;;;;9.70;91.75;101620.72;5006065;28;20046;-83
2022/06/14 01:53:51;;;;;;;4.65;1.27;;;;;;;9.69;92.00;101621.63;5004673;28;20052;-84
2022/06/14 01:56:31;;;;;;;3.33;1.35;;;;;;;9.69;92.40;101614.63;5013387;28;20026;-84
2022/06/14 01:59:53;;;;;;;6.00;1.50;;;;;;;9.70;91.68;101613.78;5023441;28;20575;-84
2022/06/14 02:05:44;;;;;;;5.75;1.55;;;;;;;9.71;92.47;101615.53;5011328;28;20076;-83
2022/06/14 02:08:18;;;;;;;6.05;1.38;;;;;;;9.72;92.21;101609.44;4983898;28;20065;-85
2022/06/14 02:11:02;;;;;;;9.68;1.58;;;;;;;9.76;91.64;101610.34;5005915;28;20053;-82
2022/06/14 02:14:00;;;;;;;2.70;1.27;;;;;;;9.73;92.19;101611.19;5004606;28;20045;-82
2022/06/14 02:16:44;;;;;;;5.38;1.30;;;;;;;9.70;92.25;101613.78;5008826;28;20041;-82
2022/06/14 02:19:21;;;;;;;5.25;1.83;;;;;;;9.69;92.66;101612.03;5006737;28;20137;-81
2022/06/14 02:21:53;;;;;;;7.80;1.63;;;;;;;9.68;92.55;101620.72;5002823;28;20044;-80
2022/06/14 02:24:37;;;;;;;4.53;1.20;;;;;;;9.65;92.63;101628.53;4989809;28;20560;-84
2022/06/14 02:27:26;;;;;;;3.08;1.73;;;;;;;9.61;92.69;101632.00;5004948;28;20141;-85
2022/06/14 02:30:00;;;;;;;14.50;2.28;;;;;;;9.59;93.50;101634.59;5023065;28;20057;-85
2022/06/14 02:32:41;;;;;;;5.78;2.08;;;;;;;9.60;93.43;101622.38;5018361;28;20064;-81
2022/06/14 02:35:15;;;;;;;10.40;1.98;;;;;;;9.58;93.66;101627.59;5009077;28;20064;-82
2022/06/14 02:37:53;;;;;;;4.80;1.80;;;;;;;9.54;93.70;101635.38;5007388;28;20128;-84
2022/06/14 02:40:30;;;;;;;3.22;1.10;;;;;;;9.54;93.68;101633.66;5010788;28;20038;-81
2022/06/14 02:43:21;;;;;;;4.60;1.35;;;;;;;9.52;94.62;101637.97;5019690;28;20078;-81
2022/06/14 02:46:05;;;;;;;4.78;1.50;;;;;;;9.52;94.12;101632.75;5004024;28;20119;-84
2022/06/14 02:48:54;;;;;;;9.73;1.92;;;;;;;9.48;94.30;101633.59;5004786;28;20662;-82
2022/06/14 02:52:15;;;;;;;5.15;1.48;;;;;;;9.44;95.07;101623.97;5023560;28;20033;-81
2022/06/14 02:55:04;;;;;;;4.25;1.65;;;;;;;9.48;95.22;101627.47;5010340;28;20053;-84
2022/06/14 02:58:09;;;;;;;3.97;1.77;;;;;;;9.50;94.72;101616.16;5000990;28;20140;-82
2022/06/14 03:00:54;;;;;;;6.05;1.48;;;;;;;9.46;94.91;101619.59;4974802;28;20072;-80
2022/06/14 03:03:29;;;;;;;6.28;1.75;;;;;;;9.41;94.44;101632.66;5009384;28;20069;-83
2022/06/14 03:06:27;;;;;;;5.05;1.50;;;;;;;9.38;95.35;101632.59;4986915;28;20045;-82
2022/06/14 03:09:11;;;;;;;2.58;1.50;;;;;;;9.37;95.97;101635.19;5003900;28;20053;-81
2022/06/14 03:11:50;;;;;;;7.05;1.70;;;;;;;9.37;95.96;101633.47;5007305;28;20479;-80
2022/06/14 03:14:33;;;;;;;2.92;1.73;;;;;;;9.36;95.69;101634.31;4991348;28;20079;-81
2022/06/14 03:17:17;;;;;;;5.00;1.83;;;;;;;9.36;95.59;101625.59;4997769;28;20076;-84
2022/06/14 03:20:12;;;;;;;4.22;1.80;;;;;;;9.35;95.58;101624.72;5004930;28;20037;-81
2022/06/14 03:22:54;;;;;;;4.78;1.63;;;;;;;9.37;95.82;101629.97;4986997;28;20570;-81
2022/06/14 03:25:31;;;;;;;2.88;2.13;;;;;;;9.42;95.65;101629.16;5000105;28;20553;-81
2022/06/14 03:28:21;;;;;;;3.92;1.98;;;;;;;9.51;95.33;101640.59;5007538;28;20058;-80
2022/06/14 03:31:14;;;;;;;5.28;1.90;;;;;;;9.57;95.39;101635.44;5006964;28;20040;-83
2022/06/14 03:33:51;;;;;;;6.05;1.98;;;;;;;9.63;94.76;101634.63;4985852;28;20700;-82
2022/06/14 03:36:17;;;;;;;7.13;1.75;;;;;;;9.69;94.34;101637.31;5003873;28;20637;-82
2022/06/14 03:39:05;;;;;;;5.32;1.60;;;;;;;9.75;93.76;101634.72;5002177;28;20049;-83
2022/06/14 03:41:34;;;;;;;8.38;1.70;;;;;;;9.79;93.50;101633.94;5005677;28;20047;-82
2022/06/14 03:44:04;;;;;;;4.65;1.88;;;;;;;9.84;93.53;101634.84;4998383;28;20053;-84
2022/06/14 03:46:40;;;;;;;8.38;2.25;;;;;;;9.88;93.08;101641.84;5008943;28;20780;-82
2022/06/14 03:49:25;;;;;;;2.70;1.95;;;;;;;9.93;92.95;101644.50;5002680;28;20057;-80
2022/06/14 03:51:54;;;;;;;6.03;1.80;;;;;;;9.93;92.97;101640.16;5007024;28;20513;-82
2022/06/14 03:54:51;;;;;;;7.57;2.00;;;;;;;9.95;92.91;101640.16;5019800;28;20142;-86
2022/06/14 03:57:50;;;;;;;5.63;2.03;;;;;;;9.99;92.28;101651.56;5015898;28;20400;-80
2022/06/14 04:01:03;;;;;;;2.45;2.13;;;;;;;10.06;91.99;101642.88;4990394;28;20186;-82
2022/06/14 04:03:47;;;;;;;4.68;2.03;;;;;;;10.13;91.83;101646.41;4962103;28;20552;-85
2022/06/14 04:06:41;;;;;;;8.35;2.25;;;;;;;10.17;91.18;101650.81;4971528;28;20229;-82
2022/06/14 04:09:36;;;;;;;9.30;2.17;;;;;;;10.21;90.74;101645.63;4992526;28;20060;-81
2022/06/14 04:12:44;;;;;;;3.42;2.00;;;;;;;10.26;90.48;101635.22;4986471;28;20518;-78
2022/06/14 04:15:35;;;;;;;4.32;1.63;;;;;;;10.30;89.94;101633.47;5006627;28;20088;-85
2022/06/14 04:18:39;;;;;;;6.10;3.17;;;;;;;10.35;89.60;101634.41;5009088;28;20042;-82
2022/06/14 04:21:48;;;;;;;7.10;1.83;;;;;;;10.38;88.97;101630.09;5000124;28;20068;-82
2022/06/14 04:24:35;;;;;;;6.90;1.83;;;;;;;10.41;87.99;101635.34;4999202;28;20049;-84
2022/06/14 04:27:18;;;;;;;3.60;1.58;;;;;;;10.42;87.55;101629.25;4989389;28;20046;-84
2022/06/14 04:30:08;;;;;;;8.70;3.00;;;;;;;10.47;87.28;101629.28;5005925;28;20045;-85
2022/06/14 04:32:47;;;;;;;4.90;1.75;;;;;;;10.52;86.62;101631.94;5004647;28;20045;-83
2022/06/14 04:35:37;;;;;;;3.83;1.60;;;;;;;10.58;86.18;101637.22;5014298;28;20046;-82
2022/06/14 04:38:13;;;;;;;7.57;2.22;;;;;;;10.68;85.44;101641.66;4995307;28;20045;-82
2022/06/14 04:40:55;;;;;;;4.60;1.77;;;;;;;10.82;84.80;101651.31;5005086;28;20307;-82
2022/06/14 04:43:53;;;;;;;3.83;1.58;;;;;;;10.97;83.77;101656.66;5005693;28;20033;-81
2022/06/14 04:46:42;;;;;;;5.72;1.52;;;;;;;11.11;82.39;101661.97;5015867;28;20048;-83
2022/06/14 04:49:27;;;;;;;4.20;1.60;;;;;;;11.22;82.01;101660.31;5014590;28;20041;-82
2022/06/14 04:52:03;;;;;;;3.50;2.03;;;;;;;11.28;80.78;101658.53;5006843;28;20045;-83
2022/06/14 04:54:41;;;;;;;5.95;1.52;;;;;;;11.34;80.56;101658.59;5012727;28;20446;-83
2022/06/14 04:57:43;;;;;;;3.75;1.23;;;;;;;11.40;80.05;101651.59;5013828;28;20045;-83
2022/06/14 05:00:32;;;;;;;4.90;1.60;;;;;;;11.46;79.05;101650.78;5007945;28;20051;-81
2022/06/14 05:03:17;;;;;;;4.30;1.42;;;;;;;11.47;79.01;101652.53;5006155;28;20529;-83
2022/06/14 05:06:21;;;;;;;2.60;1.02;;;;;;;11.47;78.89;101652.53;4980500;28;20064;-84
2022/06/14 05:09:01;;;;;;;4.53;1.67;;;;;;;11.42;78.66;101649.88;5014567;28;20053;-83
2022/06/14 05:11:50;;;;;;;4.07;1.50;;;;;;;11.40;78.87;101653.38;5010339;28;20047;-83
2022/06/14 05:14:29;;;;;;;4.40;1.58;;;;;;;11.38;78.82;101653.38;4981825;28;20495;-83
2022/06/14 05:17:11;;;;;;;3.25;1.20;;;;;;;11.39;79.51;101652.50;5016172;28;20034;-82
2022/06/14 05:19:56;;;;;;;2.83;1.17;;;;;;;11.39;79.17;101655.13;4984826;28;20072;-82
2022/06/14 05:22:48;;;;;;;5.05;1.27;;;;;;;11.39;79.28;101655.13;4976452;28;20049;-84
2022/06/14 05:25:16;;;;;;;2.35;1.30;;;;;;;11.46;78.96;101660.38;5016556;28;20080;-80
2022/06/14 05:28:08;;;;;;;7.35;2.33;;;;;;;11.56;79.04;101670.91;5005564;28;20049;-82
2022/06/14 05:30:59;;;;;;;6.05;1.80;;;;;;;11.68;77.95;101662.22;5007049;28;20095;-80
2022/06/14 05:33:58;;;;;;;9.18;1.92;;;;;;;11.82;77.35;101653.47;4993168;28;20107;-81
2022/06/14 05:36:34;;;;;;;9.43;1.92;;;;;;;11.96;76.07;101669.28;5022722;28;20045;-84
2022/06/14 05:39:20;;;;;;;8.65;2.40;;;;;;;12.06;75.78;101666.69;5008304;28;20038;-81
2022/06/14 05:41:56;;;;;;;9.10;3.17;;;;;;;12.10;75.29;101667.56;5003607;28;20041;-84
2022/06/14 05:44:39;;;;;;;2.95;1.33;;;;;;;12.07;75.25;101667.53;4992039;28;20038;-81
2022/06/14 05:47:16;;;;;;;4.80;1.67;;;;;;;12.09;75.67;101665.81;5008726;28;20041;-82
2022/06/14 05:49:53;;;;;;;6.82;1.58;;;;;;;12.12;75.17;101672.81;4999136;28;20052;-83
2022/06/14 05:52:34;;;;;;;5.28;1.40;;;;;;;12.15;75.17;101663.19;5082670;23;20112;-88
2022/06/14 05:55:11;;;;;;;4.07;1.50;;;;;;;12.19;74.95;101661.41;5062582;28;20041;-85
2022/06/14 05:58:00;;;;;;;7.47;1.10;;;;;;;12.25;74.02;101664.06;5028981;28;20037;-82
2022/06/14 06:00:37;;;;;;;4.88;1.15;;;;;;;12.35;73.90;101668.44;5026973;28;20128;-83
2022/06/14 06:03:43;;;;;;;4.20;1.10;;;;;;;12.45;73.30;101665.81;5044361;28;20141;-87
2022/06/14 06:06:14;;;;;;;4.63;1.60;;;;;;;12.53;71.99;101670.19;5038958;28;20053;-82
2022/06/14 06:08:50;;;;;;;6.32;2.25;;;;;;;12.59;72.08;101679.81;5044718;28;20037;-82
2022/06/14 06:11:23;;;;;;;3.63;1.33;;;;;;;12.65;71.56;101679.81;5046495;28;20065;-83
2022/06/14 06:14:16;;;;;;;5.37;1.70;;;;;;;12.76;71.30;101682.41;5046292;28;20111;-86
2022/06/14 06:16:54;;;;;;;3.42;0.85;;;;;;;12.91;71.04;101685.00;5029552;28;20291;-84
2022/06/14 06:19:28;;;;;;;7.50;1.48;;;;;;;13.09;70.38;101683.22;5062501;28;20540;-81
2022/06/14 06:22:06;;;;;;;;;;;;;;;13.23;69.58;101685.78;5030916;28;20133;-83
2022/06/14 06:24:59;;;;;;;3.97;1.20;;;;;;;13.37;68.95;101685.78;5044302;28;20009;-83
2022/06/14 06:27:43;;;;;;;6.75;1.45;;;;;;;13.53;68.63;101686.59;5044196;28;20045;-84
2022/06/14 06:30:23;;;;;;;2.00;0.88;;;;;;;13.66;68.38;101687.41;5061610;28;20044;-83
2022/06/14 06:32:51;;;;;;;3.25;1.33;;;;;;;13.81;67.55;101689.09;5046525;28;20044;-83
2022/06/14 06:35:19;;;;;;;2.50;0.93;;;;;;;13.97;67.39;101684.59;5028391;28;20040;-82
2022/06/14 06:38:06;;;;;;;11.38;1.20;;;;;;;14.09;66.17;101681.00;5045458;28;20049;-87
2022/06/14 06:40:33;;;;;;;2.85;0.63;;;;;;;14.16;66.14;101685.38;5045772;28;20499;-85
2022/06/14 06:43:05;;;;;;;3.22;0.85;;;;;;;14.29;65.55;101684.38;5046493;28;20388;-87
2022/06/14 06:45:39;;;;;;;2.33;1.42;;;;;;;14.43;64.99;101688.66;5040708;28;20061;-82
2022/06/14 06:48:19;;;;;;;5.32;1.05;;;;;;;14.56;63.79;101678.00;5028361;28;20719;-84
2022/06/14 06:51:06;;;;;;;7.65;1.30;;;;;;;14.66;62.72;101691.97;5025799;28;20053;-85
2022/06/14 06:53:47;;;;;;;3.40;0.63;;;;;;;14.75;62.29;101690.16;5054136;28;20641;-83
2022/06/14 06:56:22;;;;;;;3.70;1.15;;;;;;;14.76;62.56;101694.53;5065085;28;20170;-85
2022/06/14 06:58:57;;;;;;;1.40;0.90;;;;;;;14.84;61.94;101692.72;5029288;28;20129;-84
2022/06/14 07:01:42;;;;;;;2.72;0.75;;;;;;;15.01;61.75;101682.84;5045615;28;20559;-85
2022/06/14 07:05:03;;;;;;;1.83;0.82;;;;;;;15.24;60.93;101691.38;5045480;28;20091;-83
2022/06/14 07:07:21;;;;;;;2.75;0.65;;;;;;;15.42;60.27;101691.16;5067591;28;20620;-87
2022/06/14 07:10:13;;;;;;;2.63;1.10;;;;;;;15.48;58.67;101692.88;5018763;28;20411;-82
2022/06/14 07:13:03;;;;;;;2.65;0.63;;;;;;;15.55;58.60;101687.50;5044189;28;20144;-83
2022/06/14 07:15:42;;;;;;;5.60;1.10;;;;;;;15.65;59.15;101687.38;5026163;28;20053;-84
2022/06/14 07:18:27;;;;;;;3.20;0.88;;;;;;;15.65;59.68;101685.59;5046950;28;20051;-85
2022/06/14 07:21:17;;;;;;;3.78;1.23;;;;;;;15.74;58.93;101684.59;5039299;28;20091;-86
2022/06/14 07:24:08;;;;;;;6.22;2.05;;;;;;;15.73;59.11;101695.19;5037818;28;20041;-84
2022/06/14 07:26:50;;;;;;;1.65;0.98;;;;;;;15.83;59.57;101681.00;5063037;28;20044;-82
2022/06/14 07:29:40;;;;;;;4.47;1.27;;;;;;;16.14;58.52;101680.50;5042676;28;20045;-86
2022/06/14 07:32:24;;;;;;;5.20;1.10;;;;;;;16.44;57.44;101684.44;5035347;28;20053;-82
2022/06/14 07:34:52;;;;;;;3.47;0.88;;;;;;;16.66;57.45;101677.00;5031001;28;20074;-86
2022/06/14 07:38:04;;;;;;;7.50;1.02;;;;;;;16.91;55.77;101675.69;5015629;28;20052;-87
2022/06/14 07:40:56;;;;;;;5.18;2.08;;;;;;;17.23;54.17;101672.41;5045332;28;20060;-84
2022/06/14 07:43:46;;;;;;;3.22;1.10;;;;;;;17.50;54.36;101670.09;5034568;28;20041;-82
2022/06/14 07:46:21;;;;;;;3.05;0.90;;;;;;;17.93;53.48;101670.94;5049952;28;20040;-82
2022/06/14 07:49:05;;;;;;;5.85;0.85;;;;;;;18.34;52.32;101667.28;5037653;28;20487;-84
2022/06/14 07:51:45;;;;;;;5.93;1.08;;;;;;;18.80;50.69;101675.81;5056915;28;20088;-82
2022/06/14 07:54:35;;;;;;;4.50;1.23;;;;;;;19.20;49.44;101676.50;5054624;28;20043;-82
2022/06/14 07:57:16;;;;;;;3.20;0.90;;;;;;;19.61;47.35;101669.09;5053630;28;20064;-84
2022/06/14 07:59:53;;;;;;;6.22;1.20;;;;;;;19.24;47.75;101677.28;5031486;28;20048;-85
2022/06/14 08:02:49;;;;;;;4.28;1.20;;;;;;;19.13;47.67;101681.13;5050685;28;20115;-84
2022/06/14 08:05:23;;;;;;;6.25;1.58;;;;;;;19.64;46.93;101684.94;5040008;28;20064;-84
2022/06/14 08:07:52;;;;;;;1.25;0.73;;;;;;;20.32;45.80;101680.19;5061145;28;20044;-83
2022/06/14 08:10:29;;;;;;;5.95;1.30;;;;;;;20.44;44.46;101672.69;5059186;28;20036;-87
2022/06/14 08:13:01;;;;;;;4.88;1.13;;;;;;;20.47;44.23;101673.47;5060178;28;20046;-84
2022/06/14 08:15:42;;;;;;;8.03;1.27;;;;;;;20.74;43.97;101681.44;5045790;28;20064;-83
2022/06/14 08:18:35;;;;;;;2.63;1.13;;;;;;;20.95;43.58;101673.59;5048718;28;20482;-84
2022/06/14 08:21:06;;;;;;;5.63;1.45;;;;;;;20.65;42.99;101676.41;5035618;28;20119;-84
2022/06/14 08:23:44;;;;;;;3.65;1.45;;;;;;;20.56;43.51;101671.41;5048836;28;20072;-85
2022/06/14 08:26:28;;;;;;;3.58;1.08;;;;;;;21.06;42.01;101681.22;5030551;28;20097;-83
2022/06/14 08:29:18;;;;;;;8.13;1.25;;;;;;;21.40;41.76;101677.28;5046513;28;20049;-83
2022/06/14 08:32:10;;;;;;;6.43;1.27;;;;;;;21.72;41.10;101676.06;5046415;28;20068;-84
2022/06/14 08:34:46;;;;;;;3.88;1.25;;;;;;;21.98;40.85;101679.50;5067303;28;20774;-82
2022/06/14 08:37:46;;;;;;;3.53;0.75;;;;;;;21.31;41.17;101682.03;5057860;28;20036;-83
2022/06/14 08:40:37;;;;;;;5.13;1.27;;;;;;;21.15;42.08;101678.22;5048355;28;20056;-82
2022/06/14 08:43:15;;;;;;;8.02;1.10;;;;;;;21.34;40.92;101675.72;5060434;28;20114;-85
2022/06/14 08:46:26;;;;;;;2.97;1.02;;;;;;;21.63;40.62;101676.44;5046104;28;20075;-87
2022/06/14 08:49:18;;;;;;;4.85;1.08;;;;;;;22.22;39.82;101666.94;5063482;28;20479;-87
2022/06/14 08:52:21;;;;;;;4.68;1.27;;;;;;;22.17;39.05;101674.25;5047564;28;20048;-82
2022/06/14 08:55:11;;;;;;;7.53;1.50;;;;;;;21.31;40.24;101692.69;5045364;28;20582;-81
2022/06/14 08:58:09;;;;;;;5.22;0.90;;;;;;;21.84;39.35;101684.47;5047561;28;20070;-82
2022/06/14 09:01:26;;;;;;;1.88;0.95;;;;;;;22.66;38.32;101678.47;5065453;28;20056;-83
2022/06/14 09:04:36;;;;;;;3.00;0.82;;;;;;;23.26;37.13;101681.19;5061553;28;20158;-84
2022/06/14 09:07:17;;;;;;;4.45;0.80;;;;;;;23.70;37.01;101672.88;5059897;28;20044;-83
2022/06/14 09:10:14;;;;;;;3.95;1.30;;;;;;;24.38;35.81;101669.53;5046195;28;20037;-84
2022/06/14 09:13:24;;;;;;;3.05;1.15;;;;;;;24.98;34.04;101667.38;5047997;28;20525;-84
2022/06/14 09:16:17;;;;;;;3.00;1.17;;;;;;;25.07;33.90;101665.09;5066328;28;20555;-86
2022/06/14 09:18:56;;;;;;;2.75;1.50;;;;;;;23.77;34.76;101679.63;5046788;28;20032;-84
2022/06/14 09:22:05;;;;;;;2.55;0.90;;;;;;;22.85;36.42;101671.38;5041659;28;20044;-83
2022/06/14 09:25:09;;;;;;;5.93;2.78;;;;;;;21.60;38.47;101673.88;5035349;28;20051;-84
2022/06/14 09:28:04;;;;;;;2.25;1.08;;;;;;;20.34;40.81;101677.47;5047533;28;20036;-87
2022/06/14 09:31:15;;;;;;;2.58;1.00;;;;;;;19.64;42.51;101678.78;5051969;28;20449;-82
2022/06/14 09:34:11;;;;;;;3.40;1.17;;;;;;;19.71;42.75;101676.78;5040283;28;20513;-83
2022/06/14 09:37:08;;;;;;;3.58;1.15;;;;;;;20.35;41.80;101675.66;5059170;28;20048;-83
2022/06/14 09:40:05;;;;;;;2.03;0.80;;;;;;;20.06;42.07;101672.19;5064875;28;20497;-84
2022/06/14 09:43:15;;;;;;;5.15;0.95;;;;;;;19.34;43.66;101682.28;5065128;28;20864;-84
2022/06/14 09:46:12;;;;;;;3.67;1.55;;;;;;;18.55;45.53;101686.22;5063484;28;20044;-86
2022/06/14 09:49:38;;;;;;;2.78;1.20;;;;;;;18.28;46.13;101677.19;5047399;28;20040;-84
2022/06/14 09:52:59;;;;;;;3.17;1.10;;;;;;;18.23;46.21;101685.22;5030788;28;20144;-90
2022/06/14 09:56:15;;;;;;;5.82;1.20;;;;;;;18.28;46.32;101677.19;5043207;28;20033;-84
2022/06/14 09:59:21;;;;;;;2.08;0.90;;;;;;;18.51;44.55;101676.56;5041674;28;20067;-84
2022/06/14 10:02:28;;;;;;;6.03;1.10;;;;;;;18.63;43.70;101673.63;5051149;28;20041;-85
2022/06/14 10:05:46;;;;;;;4.07;1.38;;;;;;;18.82;44.60;101673.97;5047932;28;20515;-84
2022/06/14 10:08:38;;;;;;;5.50;1.13;;;;;;;20.30;41.95;101673.19;5033852;28;20460;-83
2022/06/14 10:11:29;;;;;;;4.78;1.08;;;;;;;22.24;38.86;101659.75;5045496;28;20033;-83
2022/06/14 10:14:22;;;;;;;3.55;1.25;;;;;;;23.78;34.64;101669.81;5023858;28;20068;-84
2022/06/14 10:17:16;;;;;;;3.08;1.00;;;;;;;24.24;34.77;101659.53;5043615;28;20037;-83
2022/06/14 10:20:00;;;;;;;4.35;0.77;;;;;;;25.67;33.18;101654.69;5053122;28;20137;-83
2022/06/14 10:22:45;;;;;;;4.18;0.82;;;;;;;27.47;30.93;101650.19;5057870;28;20049;-84
2022/06/14 10:25:31;;;;;;;5.20;1.13;;;;;;;28.03;28.73;101650.13;5042804;28;20527;-84
2022/06/14 10:28:25;;;;;;;4.30;1.10;;;;;;;26.29;30.07;101648.47;5057582;28;20045;-85
2022/06/14 10:31:06;;;;;;;6.85;1.25;;;;;;;24.45;32.84;101654.88;5046917;28;20033;-86
2022/06/14 10:34:13;;;;;;;10.50;1.13;;;;;;;23.02;35.35;101657.25;5046494;28;20040;-83
2022/06/14 10:37:20;;;;;;;4.72;1.10;;;;;;;22.05;37.87;101662.28;5048500;28;20098;-85
2022/06/14 10:40:07;;;;;;;3.17;1.33;;;;;;;21.42;39.11;101659.44;5058440;28;20685;-85
2022/06/14 10:43:00;;;;;;;3.53;1.23;;;;;;;20.91;40.09;101667.53;5061642;28;20067;-85
2022/06/14 10:45:57;;;;;;;;;;;;;;;;;;;;;
2022/06/14 10:49:12;;;;;;;2.80;1.02;;;;;;;21.01;40.05;101672.53;5036741;28;20407;-82
2022/06/14 10:52:05;;;;;;;2.42;1.30;;;;;;;21.74;38.91;101660.88;5048024;28;20061;-84
2022/06/14 10:55:02;;;;;;;2.55;1.23;;;;;;;22.90;35.90;101657.84;5047893;28;20037;-85
2022/06/14 10:57:47;;;;;;;5.43;1.25;;;;;;;23.33;35.63;101657.72;5044578;28;20045;-83
2022/06/14 11:00:35;;;;;;;2.92;1.27;;;;;;;23.65;34.11;101656.19;5045383;28;20090;-83
2022/06/14 11:03:17;;;;;;;2.35;0.85;;;;;;;24.28;33.78;101645.06;5045846;28;20045;-84
2022/06/14 11:06:23;;;;;;;3.58;1.60;;;;;;;24.58;32.44;101647.09;5044432;28;20052;-83
2022/06/14 11:09:12;;;;;;;4.07;0.68;;;;;;;24.00;33.49;101652.75;5045334;28;20045;-86
2022/06/14 11:12:07;;;;;;;4.20;1.20;;;;;;;24.58;32.22;101647.09;5049932;28;20044;-86
2022/06/14 11:15:00;;;;;;;3.05;1.38;;;;;;;25.45;30.97;101647.88;5048618;28;20041;-86
2022/06/14 11:17:50;;;;;;;2.00;1.05;;;;;;;25.27;30.73;101641.69;5048242;28;20383;-83
2022/06/14 11:21:13;;;;;;;2.33;1.13;;;;;;;24.72;31.08;101642.88;5048637;28;20491;-84
2022/06/14 11:24:24;;;;;;;2.53;0.90;;;;;;;25.99;28.67;101641.25;5059703;28;20079;-83
2022/06/14 11:27:08;;;;;;;1.70;0.75;;;;;;;26.89;27.94;101642.16;5045681;28;20044;-88
2022/06/14 11:30:02;;;;;;;3.35;0.95;;;;;;;26.89;28.83;101642.16;5051617;28;20421;-83
2022/06/14 11:32:52;;;;;;;4.53;1.40;;;;;;;26.42;29.66;101642.25;5049583;28;20041;-87
2022/06/14 11:35:44;;;;;;;1.70;0.98;;;;;;;25.36;31.23;101648.41;5033572;28;20352;-86
2022/06/14 11:38:46;;;;;;;5.93;1.98;;;;;;;24.43;33.01;101645.22;5049402;28;20395;-82
2022/06/14 11:41:16;;;;;;;4.95;1.27;;;;;;;23.83;33.69;101641.06;5039852;28;20075;-85
2022/06/14 11:44:21;;;;;;;2.55;1.08;;;;;;;23.38;34.29;101645.84;5037373;28;20045;-87
2022/06/14 11:47:05;;;;;;;3.15;1.17;;;;;;;23.27;34.67;101637.47;5046414;28;20828;-85
2022/06/14 11:50:04;;;;;;;3.05;1.75;;;;;;;23.54;35.10;101637.13;5045382;28;20047;-84
2022/06/14 11:52:43;;;;;;;3.53;1.05;;;;;;;24.01;33.85;101633.09;5045532;28;20534;-83
2022/06/14 11:55:35;;;;;;;2.25;1.10;;;;;;;24.90;32.74;101627.59;5031452;28;20262;-84
2022/06/14 11:58:13;;;;;;;;;;;;;;;27.32;28.48;101626.00;5028512;28;20136;-85
2022/06/14 12:01:34;;;;;;;2.95;1.15;;;;;;;29.64;25.84;101620.00;5031862;28;19982;-84
2022/06/14 12:04:32;;;;;;;1.30;0.73;;;;;;;31.47;23.25;101618.34;5031593;28;20045;-83
2022/06/14 12:07:22;;;;;;;3.00;0.85;;;;;;;31.74;22.45;101621.63;5046301;28;20216;-83
2022/06/14 12:10:13;;;;;;;2.67;1.33;;;;;;;31.43;23.55;101622.31;5029630;28;20055;-84
2022/06/14 12:13:06;;;;;;;7.65;0.88;;;;;;;32.82;22.46;101606.97;5050011;28;20065;-82
2022/06/14 12:16:08;;;;;;;4.90;1.02;;;;;;;33.95;20.83;101605.78;5045421;28;20136;-84
2022/06/14 12:18:40;;;;;;;2.00;0.82;;;;;;;34.13;21.50;101607.75;5055425;28;20079;-83
2022/06/14 12:21:28;;;;;;;2.38;1.15;;;;;;;34.19;20.57;101604.44;5059376;28;20053;-85
2022/06/14 12:24:01;;;;;;;1.35;0.80;;;;;;;33.50;20.29;101609.03;5012453;28;20558;-83
2022/06/14 12:26:51;;;;;;;2.47;0.73;;;;;;;33.52;19.77;101600.72;5028275;28;20041;-84
2022/06/14 12:29:23;;;;;;;2.05;1.45;;;;;;;33.51;19.81;101597.16;5023229;28;20041;-84
2022/06/14 12:32:02;;;;;;;1.73;1.35;;;;;;;32.14;20.78;101602.81;5009058;28;20036;-82
2022/06/14 12:34:58;;;;;;;3.15;1.35;;;;;;;28.98;24.51;101607.66;5048649;28;20134;-84
2022/06/14 12:37:38;;;;;;;2.42;0.85;;;;;;;27.46;27.06;101605.47;5050124;28;20045;-85
2022/06/14 12:40:32;;;;;;;2.38;1.25;;;;;;;26.38;28.59;101603.13;5026510;28;20037;-87
2022/06/14 12:43:13;;;;;;;2.72;1.58;;;;;;;26.41;29.16;101594.91;5053272;28;20045;-81
2022/06/14 12:45:55;;;;;;;1.45;1.02;;;;;;;26.88;28.62;101605.50;5045307;28;20045;-83
2022/06/14 12:48:40;;;;;;;5.20;1.20;;;;;;;26.42;29.29;101593.94;5026690;28;20383;-83
2022/06/14 12:51:19;;;;;;;5.65;1.50;;;;;;;25.44;30.45;101589.84;5059507;23;20322;-83
2022/06/14 12:54:29;;;;;;;2.35;0.88;;;;;;;25.08;31.19;101585.56;5035695;28;20036;-84
2022/06/14 12:57:31;;;;;;;4.50;1.58;;;;;;;25.78;30.14;101576.31;5046246;28;20123;-82
2022/06/14 13:00:20;;;;;;;4.13;1.60;;;;;;;25.32;30.56;101582.44;5029350;28;20513;-85
2022/06/14 13:03:01;;;;;;;4.30;1.38;;;;;;;24.81;31.08;101578.13;5045368;28;20092;-83
2022/06/14 13:05:43;;;;;;;2.78;1.02;;;;;;;25.92;29.56;101571.00;5029559;28;20134;-84